Lamont, California
Current Conditions -  °F | °C
As of 3:54 AM on Saturday 25 Oct 2014 (Local Time) from KBFL Reporting Station
Clear Clear  
Wind Chill: 60°   Ceiling: Unl
Heat Index: 60°   Visibility: 10mi
Dew Point: 38°   Wind: 5mph
Humidity: 44%   Direction: 30°NNE
Pressure: 29.93"   Gusts: NA
Location:  35.27°N, 118.91°W
Report Text: KBFL 251054Z AUTO 03004KT 10SM CLR 16/03 A2993 RMK AO2 SLP130 T01560033
Loading
Personal Weather Stations






























Interactive Weather Map
Tropical Storm Tracking
New forecast layout! Learn more

10-Day Weather Forecast

Advertisements
Track Severe Weather on mobile